createdAt,value
2023-02-18T00:00:37.830Z,28.00
2023-02-18T00:01:37.823Z,29.70
2023-02-18T00:02:37.855Z,25.60
2023-02-18T00:03:37.833Z,32.00
2023-02-18T00:04:37.777Z,30.40
2023-02-18T00:05:37.781Z,28.80
2023-02-18T00:06:37.762Z,29.20
2023-02-18T00:07:37.748Z,27.90
2023-02-18T00:08:37.731Z,33.30
2023-02-18T00:09:37.726Z,28.60
2023-02-18T00:10:37.720Z,29.70
2023-02-18T00:11:37.706Z,31.40
2023-02-18T00:12:37.688Z,26.80
2023-02-18T00:13:37.680Z,27.30
2023-02-18T00:14:37.662Z,29.00
2023-02-18T00:15:37.712Z,31.10
2023-02-18T00:16:37.640Z,32.80
2023-02-18T00:17:37.651Z,29.20
2023-02-18T00:18:37.625Z,32.70
2023-02-18T00:19:37.615Z,29.90
2023-02-18T00:20:37.609Z,35.60
2023-02-18T00:21:37.589Z,31.20
2023-02-18T00:22:37.580Z,36.60
2023-02-18T00:23:37.577Z,33.40
2023-02-18T00:24:37.555Z,39.00
2023-02-18T00:25:37.561Z,30.10
2023-02-18T00:26:37.541Z,32.60
2023-02-18T00:27:37.533Z,29.30
2023-02-18T00:28:37.509Z,33.50
2023-02-18T00:29:37.509Z,37.20
2023-02-18T00:30:37.500Z,36.90
2023-02-18T00:31:37.590Z,33.60
2023-02-18T00:32:37.471Z,35.50
2023-02-18T00:33:37.462Z,36.70
2023-02-18T00:34:37.485Z,35.40
2023-02-18T00:35:37.442Z,36.40
2023-02-18T00:36:37.450Z,34.90
2023-02-18T00:37:37.448Z,37.70
2023-02-18T00:38:37.399Z,35.00
2023-02-18T00:39:37.410Z,36.50
2023-02-18T00:40:37.390Z,34.10
2023-02-18T00:41:37.376Z,41.30
2023-02-18T00:42:37.357Z,34.00
2023-02-18T00:43:37.373Z,40.30
2023-02-18T00:44:37.331Z,39.80
2023-02-18T00:45:37.337Z,36.00
2023-02-18T00:46:37.347Z,38.30
2023-02-18T00:47:37.304Z,36.90
2023-02-18T00:48:37.288Z,36.80
2023-02-18T00:49:37.282Z,36.20
2023-02-18T00:50:37.309Z,37.00
2023-02-18T00:51:37.260Z,37.90
2023-02-18T00:52:37.244Z,40.30
2023-02-18T00:53:37.247Z,38.00
2023-02-18T00:54:38.247Z,39.60
2023-02-18T00:55:37.227Z,36.50
2023-02-18T00:56:37.202Z,38.70
2023-02-18T00:57:37.193Z,45.60
2023-02-18T00:58:37.177Z,38.80
2023-02-18T00:59:37.177Z,39.10
2023-02-18T01:00:37.175Z,40.90
2023-02-18T01:01:37.200Z,38.40
2023-02-18T01:02:37.132Z,39.80
2023-02-18T01:03:37.132Z,39.70
2023-02-18T01:04:37.139Z,40.40
2023-02-18T01:05:37.113Z,40.90
2023-02-18T01:06:37.102Z,43.20
2023-02-18T01:07:37.083Z,43.50
2023-02-18T01:08:37.099Z,39.60
2023-02-18T01:09:37.064Z,43.30
2023-02-18T01:10:37.048Z,40.90
2023-02-18T01:11:37.049Z,42.70
2023-02-18T01:12:37.028Z,40.50
2023-02-18T01:13:37.021Z,40.40
2023-02-18T01:14:37.007Z,45.20
2023-02-18T01:15:36.998Z,40.00
2023-02-18T01:16:36.993Z,41.30
2023-02-18T01:17:36.976Z,42.30
2023-02-18T01:18:36.973Z,38.50
2023-02-18T01:19:36.953Z,38.30
2023-02-18T01:20:36.954Z,41.60
2023-02-18T01:21:36.945Z,45.10
2023-02-18T01:22:36.927Z,38.00
2023-02-18T01:23:36.912Z,45.00
2023-02-18T01:24:36.894Z,43.10
2023-02-18T01:25:36.889Z,45.50
2023-02-18T01:26:36.894Z,41.60
2023-02-18T01:27:36.866Z,40.00
2023-02-18T01:28:36.856Z,36.40
2023-02-18T01:29:36.861Z,40.80
2023-02-18T01:30:36.829Z,38.70
2023-02-18T01:31:36.901Z,39.00
2023-02-18T01:32:36.809Z,42.00
2023-02-18T01:33:36.796Z,41.10
2023-02-18T01:34:36.794Z,42.90
2023-02-18T01:35:36.773Z,43.60
2023-02-18T01:36:36.786Z,41.20
2023-02-18T01:37:36.754Z,40.00
2023-02-18T01:38:36.746Z,41.80
2023-02-18T01:39:36.733Z,39.00
2023-02-18T01:40:36.720Z,41.10
2023-02-18T01:41:36.714Z,41.20
2023-02-18T01:42:36.698Z,38.90
2023-02-18T01:43:36.684Z,39.30
2023-02-18T01:44:36.673Z,39.20
2023-02-18T01:45:36.664Z,35.10
2023-02-18T01:46:36.711Z,39.00
2023-02-18T01:47:36.641Z,36.00
2023-02-18T01:48:39.090Z,38.20
2023-02-18T01:49:36.612Z,41.70
2023-02-18T01:50:36.605Z,43.10
2023-02-18T01:51:36.599Z,35.50
2023-02-18T01:52:36.594Z,36.30
2023-02-18T01:53:36.566Z,36.10
2023-02-18T01:54:36.564Z,34.60
2023-02-18T01:55:36.545Z,36.70
2023-02-18T01:56:36.550Z,36.30
2023-02-18T01:57:36.537Z,38.50
2023-02-18T01:58:36.532Z,37.80
2023-02-18T01:59:36.514Z,36.80
2023-02-18T02:00:36.511Z,36.30
2023-02-18T02:01:36.507Z,40.10
2023-02-18T02:02:36.470Z,36.50
2023-02-18T02:03:36.458Z,36.90
2023-02-18T02:04:36.454Z,40.50
2023-02-18T02:05:36.480Z,37.60
2023-02-18T02:06:36.571Z,34.30
2023-02-18T02:07:36.412Z,35.00
2023-02-18T02:08:36.405Z,36.20
2023-02-18T02:09:36.394Z,37.90
2023-02-18T02:10:36.385Z,39.60
2023-02-18T02:11:36.382Z,37.40
2023-02-18T02:12:36.363Z,36.70
2023-02-18T02:13:36.349Z,38.80
2023-02-18T02:14:36.340Z,38.30
2023-02-18T02:15:36.328Z,39.80
2023-02-18T02:16:36.348Z,42.50
2023-02-18T02:17:36.310Z,38.80
2023-02-18T02:18:36.297Z,40.30
2023-02-18T02:19:36.281Z,41.20
2023-02-18T02:20:36.275Z,38.00
2023-02-18T02:21:36.278Z,38.60
2023-02-18T02:22:36.254Z,38.80
2023-02-18T02:23:36.240Z,38.60
2023-02-18T02:24:36.231Z,38.90
2023-02-18T02:25:36.215Z,40.80
2023-02-18T02:26:36.225Z,39.20
2023-02-18T02:27:36.197Z,38.30
2023-02-18T02:28:36.191Z,38.00
2023-02-18T02:29:36.173Z,39.90
2023-02-18T02:30:36.238Z,38.50
2023-02-18T02:31:36.187Z,37.90
2023-02-18T02:32:36.149Z,39.50
2023-02-18T02:33:36.131Z,42.80
2023-02-18T02:34:36.125Z,42.50
2023-02-18T02:35:36.107Z,44.00
2023-02-18T02:36:36.109Z,39.70
2023-02-18T02:37:36.086Z,44.20
2023-02-18T02:38:36.085Z,42.70
2023-02-18T02:39:36.060Z,48.50
2023-02-18T02:40:36.057Z,43.10
2023-02-18T02:41:36.050Z,41.80
2023-02-18T02:42:36.036Z,45.40
2023-02-18T02:43:36.020Z,41.20
2023-02-18T02:44:36.021Z,42.60
2023-02-18T02:45:35.999Z,41.90
2023-02-18T02:46:36.004Z,42.40
2023-02-18T02:47:35.981Z,38.90
2023-02-18T02:48:35.969Z,42.20
2023-02-18T02:49:35.962Z,40.00
2023-02-18T02:50:35.955Z,41.20
2023-02-18T02:51:35.941Z,41.70
2023-02-18T02:52:35.926Z,39.50
2023-02-18T02:53:35.919Z,41.00
2023-02-18T02:54:35.934Z,41.70
2023-02-18T02:55:35.895Z,35.90
2023-02-18T02:56:35.900Z,41.10
2023-02-18T02:57:35.870Z,38.80
2023-02-18T02:58:35.861Z,47.60
2023-02-18T02:59:35.845Z,41.10
2023-02-18T03:00:35.847Z,38.60
2023-02-18T03:01:35.838Z,39.30
2023-02-18T03:02:35.826Z,38.40
2023-02-18T03:03:35.803Z,39.80
2023-02-18T03:04:35.803Z,34.60
2023-02-18T03:05:35.782Z,42.20
2023-02-18T03:06:35.793Z,36.60
2023-02-18T03:07:35.765Z,37.10
2023-02-18T03:08:35.753Z,36.80
2023-02-18T03:09:35.738Z,35.40
2023-02-18T03:10:35.733Z,32.80
2023-02-18T03:11:35.729Z,33.90
2023-02-18T03:12:35.710Z,35.30
2023-02-18T03:13:35.697Z,32.00
2023-02-18T03:14:35.691Z,33.60
2023-02-18T03:15:35.678Z,31.00
2023-02-18T03:16:35.714Z,35.00
2023-02-18T03:17:35.654Z,32.60
2023-02-18T03:18:35.643Z,35.60
2023-02-18T03:19:35.646Z,33.60
2023-02-18T03:20:35.628Z,36.60
2023-02-18T03:21:35.753Z,36.10
2023-02-18T03:22:35.598Z,33.30
2023-02-18T03:23:35.594Z,32.80
2023-02-18T03:24:35.577Z,35.50
2023-02-18T03:25:35.567Z,34.80
2023-02-18T03:26:35.573Z,38.50
2023-02-18T03:27:35.546Z,40.60
2023-02-18T03:28:35.532Z,36.40
2023-02-18T03:29:35.525Z,35.40
2023-02-18T03:30:35.560Z,36.20
2023-02-18T03:31:35.595Z,37.60
2023-02-18T03:32:35.500Z,34.60
2023-02-18T03:33:35.481Z,36.70
2023-02-18T03:34:35.469Z,37.40
2023-02-18T03:35:35.458Z,33.10
2023-02-18T03:36:35.453Z,34.10
2023-02-18T03:37:35.438Z,33.80
2023-02-18T03:38:35.439Z,31.40
2023-02-18T03:39:35.420Z,33.20
2023-02-18T03:40:35.398Z,35.20
2023-02-18T03:41:35.416Z,37.00
2023-02-18T03:42:35.378Z,34.10
2023-02-18T03:43:35.370Z,33.30
2023-02-18T03:44:35.372Z,36.60
2023-02-18T03:45:35.421Z,34.40
2023-02-18T03:46:35.356Z,34.40
2023-02-18T03:47:35.326Z,34.10
2023-02-18T03:48:35.310Z,37.50
2023-02-18T03:49:35.305Z,33.80
2023-02-18T03:50:35.291Z,35.80
2023-02-18T03:51:35.296Z,34.10
2023-02-18T03:52:35.276Z,30.50
2023-02-18T03:53:35.265Z,33.90
2023-02-18T03:54:35.245Z,37.20
2023-02-18T03:55:35.236Z,32.90
2023-02-18T03:56:35.232Z,34.40
2023-02-18T03:57:35.217Z,36.00
2023-02-18T03:58:35.215Z,31.20
2023-02-18T03:59:35.191Z,36.30
2023-02-18T04:00:35.173Z,34.30
2023-02-18T04:01:35.210Z,33.60
2023-02-18T04:02:35.152Z,35.90
2023-02-18T04:03:35.146Z,38.90
2023-02-18T04:04:35.198Z,36.10
2023-02-18T04:05:35.125Z,33.80
2023-02-18T04:06:35.282Z,35.20
2023-02-18T04:07:35.100Z,34.20
2023-02-18T04:08:35.089Z,33.90
2023-02-18T04:09:35.079Z,32.10
2023-02-18T04:10:35.062Z,36.20
2023-02-18T04:11:35.069Z,33.90
2023-02-18T04:12:35.044Z,33.10
2023-02-18T04:13:35.036Z,33.70
2023-02-18T04:14:35.030Z,32.00
2023-02-18T04:15:35.011Z,33.50
2023-02-18T04:16:35.031Z,28.10
2023-02-18T04:17:34.988Z,32.10
2023-02-18T04:18:34.977Z,30.60
2023-02-18T04:19:34.971Z,31.20
2023-02-18T04:20:34.951Z,33.00
2023-02-18T04:21:34.959Z,33.30
2023-02-18T04:22:34.933Z,28.30
2023-02-18T04:23:34.935Z,31.70
2023-02-18T04:24:34.912Z,32.30
2023-02-18T04:25:34.909Z,26.80
2023-02-18T04:26:34.902Z,33.80
2023-02-18T04:27:34.884Z,27.10
2023-02-18T04:28:34.867Z,30.70
2023-02-18T04:29:34.862Z,28.20
2023-02-18T04:30:34.979Z,25.60
2023-02-18T04:31:34.903Z,26.50
2023-02-18T04:32:34.822Z,26.50
2023-02-18T04:33:34.821Z,23.90
2023-02-18T04:34:34.809Z,23.10
2023-02-18T04:35:34.801Z,27.20
2023-02-18T04:36:34.809Z,27.30
2023-02-18T04:37:34.766Z,27.90
2023-02-18T04:38:34.766Z,23.30
2023-02-18T04:39:34.745Z,27.20
2023-02-18T04:40:34.740Z,26.50
2023-02-18T04:41:34.738Z,27.30
2023-02-18T04:42:34.721Z,28.30
2023-02-18T04:43:34.706Z,23.90
2023-02-18T04:44:34.701Z,23.10
2023-02-18T04:45:34.681Z,27.80
2023-02-18T04:46:34.769Z,28.40
2023-02-18T04:47:34.657Z,25.10
2023-02-18T04:48:34.650Z,27.00
2023-02-18T04:49:34.645Z,31.30
2023-02-18T04:50:34.631Z,29.70
2023-02-18T04:51:34.647Z,28.40
2023-02-18T04:52:34.604Z,30.20
2023-02-18T04:53:34.591Z,32.20
2023-02-18T04:54:34.588Z,29.80
2023-02-18T04:55:34.568Z,28.40
2023-02-18T04:56:34.575Z,31.80
2023-02-18T04:57:34.549Z,31.40
2023-02-18T04:58:34.543Z,30.40
2023-02-18T04:59:34.535Z,34.70
2023-02-18T05:00:34.524Z,32.10
2023-02-18T05:01:34.547Z,35.70
2023-02-18T05:02:34.500Z,37.60
2023-02-18T05:03:34.488Z,34.80
2023-02-18T05:04:34.501Z,32.90
2023-02-18T05:05:34.705Z,32.00
2023-02-18T05:06:34.467Z,34.80
2023-02-18T05:07:34.446Z,30.60
2023-02-18T05:08:34.435Z,35.10
2023-02-18T05:09:34.423Z,35.10
2023-02-18T05:10:34.414Z,31.20
2023-02-18T05:11:34.411Z,33.40
2023-02-18T05:12:34.475Z,32.40
2023-02-18T05:13:34.387Z,31.00
2023-02-18T05:14:34.374Z,30.00
2023-02-18T05:15:34.408Z,27.50
2023-02-18T05:16:34.359Z,30.30
2023-02-18T05:17:34.338Z,27.70
2023-02-18T05:18:34.532Z,30.50
2023-02-18T05:19:34.321Z,27.50
2023-02-18T05:20:34.308Z,28.40
2023-02-18T05:21:34.302Z,28.20
2023-02-18T05:22:34.284Z,30.90
2023-02-18T05:23:34.319Z,31.20
2023-02-18T05:24:34.294Z,27.50
2023-02-18T05:25:34.255Z,28.90
2023-02-18T05:26:34.249Z,27.40
2023-02-18T05:27:34.237Z,23.80
2023-02-18T05:28:34.218Z,26.90
2023-02-18T05:29:34.209Z,24.50
2023-02-18T05:30:34.297Z,26.60
2023-02-18T05:31:34.300Z,24.80
2023-02-18T05:32:34.184Z,24.60
2023-02-18T05:33:34.173Z,26.60
2023-02-18T05:34:34.154Z,26.10
2023-02-18T05:35:34.139Z,25.80
2023-02-18T05:36:34.139Z,28.40
2023-02-18T05:37:34.113Z,28.60
2023-02-18T05:38:34.114Z,30.60
2023-02-18T05:39:34.090Z,26.60
2023-02-18T05:40:34.092Z,28.60
2023-02-18T05:41:34.087Z,29.70
2023-02-18T05:42:34.069Z,27.10
2023-02-18T05:43:34.051Z,28.60
2023-02-18T05:44:34.042Z,28.50
2023-02-18T05:45:34.034Z,29.80
2023-02-18T05:46:34.107Z,28.50
2023-02-18T05:47:34.003Z,29.80
2023-02-18T05:48:33.997Z,27.60
2023-02-18T05:49:33.985Z,28.60
2023-02-18T05:50:33.974Z,26.30
2023-02-18T05:51:33.966Z,27.20
2023-02-18T05:52:33.957Z,27.80
2023-02-18T05:53:33.946Z,30.10
2023-02-18T05:54:33.936Z,30.60
2023-02-18T05:55:33.917Z,27.60
2023-02-18T05:56:33.919Z,28.10
2023-02-18T05:57:33.900Z,30.40
2023-02-18T05:58:33.885Z,28.50
2023-02-18T05:59:33.873Z,26.70
2023-02-18T06:00:33.870Z,26.20
2023-02-18T06:01:33.862Z,29.80
2023-02-18T06:02:33.886Z,29.30
2023-02-18T06:03:33.836Z,27.90
2023-02-18T06:04:33.828Z,26.90
2023-02-18T06:05:33.839Z,27.60
2023-02-18T06:06:33.811Z,26.70
2023-02-18T06:07:33.787Z,28.60
2023-02-18T06:08:33.778Z,29.40
2023-02-18T06:09:33.763Z,28.00
2023-02-18T06:10:34.057Z,28.70
2023-02-18T06:11:33.753Z,29.30
2023-02-18T06:12:33.760Z,28.00
2023-02-18T06:13:33.718Z,33.50
2023-02-18T06:14:33.729Z,29.20
2023-02-18T06:15:33.702Z,27.90
2023-02-18T06:16:33.698Z,29.70
2023-02-18T06:17:33.677Z,27.40
2023-02-18T06:18:33.676Z,26.10
2023-02-18T06:19:33.660Z,31.00
2023-02-18T06:20:33.651Z,31.30
2023-02-18T06:21:33.677Z,28.70
2023-02-18T06:22:33.624Z,31.90
2023-02-18T06:23:33.612Z,27.60
2023-02-18T06:24:33.603Z,28.00
2023-02-18T06:25:33.588Z,26.40
2023-02-18T06:26:33.592Z,24.30
2023-02-18T06:27:33.572Z,25.00
2023-02-18T06:28:33.560Z,19.70
2023-02-18T06:29:33.545Z,22.50
2023-02-18T06:30:33.621Z,20.80
2023-02-18T06:31:33.638Z,20.50
2023-02-18T06:32:33.512Z,21.70
2023-02-18T06:33:33.499Z,23.00
2023-02-18T06:34:33.491Z,21.60
2023-02-18T06:35:33.473Z,20.80
2023-02-18T06:36:33.478Z,19.40
2023-02-18T06:37:33.451Z,17.60
2023-02-18T06:38:33.456Z,16.20
2023-02-18T06:39:33.430Z,20.00
2023-02-18T06:40:33.425Z,16.60
2023-02-18T06:41:33.423Z,18.30
2023-02-18T06:42:33.404Z,13.50
2023-02-18T06:43:33.396Z,13.80
2023-02-18T06:44:33.379Z,13.50
2023-02-18T06:45:33.367Z,12.40
2023-02-18T06:46:33.411Z,13.90
2023-02-18T06:47:33.339Z,12.30
2023-02-18T06:48:33.336Z,14.30
2023-02-18T06:49:33.320Z,11.40
2023-02-18T06:50:33.312Z,12.50
2023-02-18T06:51:33.306Z,10.80
2023-02-18T06:52:33.297Z,10.30
2023-02-18T06:53:33.277Z,9.50
2023-02-18T06:54:33.267Z,9.30
2023-02-18T06:55:33.250Z,9.50
2023-02-18T06:56:33.266Z,8.70
2023-02-18T06:57:33.229Z,8.70
2023-02-18T06:58:33.222Z,9.50
2023-02-18T06:59:33.207Z,8.10
2023-02-18T07:00:33.384Z,7.70
2023-02-18T07:01:33.212Z,6.70
2023-02-18T07:02:33.195Z,6.20
2023-02-18T07:03:33.206Z,6.30
2023-02-18T07:04:33.158Z,6.90
2023-02-18T07:05:33.145Z,5.60
2023-02-18T07:06:33.135Z,5.60
2023-02-18T07:07:33.133Z,4.80
2023-02-18T07:08:33.123Z,6.10
2023-02-18T07:09:33.098Z,5.50
2023-02-18T07:10:33.095Z,4.90
2023-02-18T07:11:33.075Z,6.10
2023-02-18T07:12:33.080Z,3.40
2023-02-18T07:13:33.068Z,3.80
2023-02-18T07:14:33.053Z,4.10
2023-02-18T07:15:33.042Z,3.60
2023-02-18T07:16:33.070Z,4.70
2023-02-18T07:17:33.035Z,4.10
2023-02-18T07:18:33.008Z,3.90
2023-02-18T07:19:32.990Z,4.20
2023-02-18T07:20:32.985Z,3.00
2023-02-18T07:21:32.964Z,2.50
2023-02-18T07:22:32.969Z,2.70
2023-02-18T07:23:32.948Z,3.10
2023-02-18T07:24:32.939Z,3.10
2023-02-18T07:25:32.937Z,3.60
2023-02-18T07:26:32.921Z,2.70
2023-02-18T07:27:32.912Z,3.30
2023-02-18T07:28:32.896Z,3.30
2023-02-18T07:29:32.877Z,3.20
2023-02-18T07:30:32.891Z,2.70
2023-02-18T07:31:32.905Z,3.30
2023-02-18T07:32:32.855Z,2.70
2023-02-18T07:33:32.834Z,2.90
2023-02-18T07:34:32.828Z,3.30
2023-02-18T07:35:32.822Z,2.60
2023-02-18T07:36:32.808Z,2.90
2023-02-18T07:37:32.808Z,2.60
2023-02-18T07:38:32.783Z,3.10
2023-02-18T07:39:32.770Z,3.40
2023-02-18T07:40:32.763Z,2.50
2023-02-18T07:41:32.747Z,2.60
2023-02-18T07:42:32.751Z,3.20
2023-02-18T07:43:32.727Z,2.70
2023-02-18T07:44:32.719Z,3.10
2023-02-18T07:45:32.792Z,2.60
2023-02-18T07:46:32.699Z,2.50
2023-02-18T07:47:32.693Z,2.90
2023-02-18T07:48:32.673Z,3.50
2023-02-18T07:49:32.664Z,3.00
2023-02-18T07:50:32.659Z,2.50
2023-02-18T07:51:32.650Z,2.70
2023-02-18T07:52:32.646Z,2.20
2023-02-18T07:53:32.620Z,1.70
2023-02-18T07:54:32.611Z,2.70
2023-02-18T07:55:32.592Z,3.10
2023-02-18T07:56:32.588Z,2.90
2023-02-18T07:57:32.582Z,2.20
2023-02-18T07:58:32.577Z,2.00
2023-02-18T07:59:32.550Z,2.80
2023-02-18T08:00:32.547Z,2.60
2023-02-18T08:01:32.528Z,1.80
2023-02-18T08:02:32.532Z,2.20
2023-02-18T08:03:32.506Z,2.20
2023-02-18T08:04:32.585Z,2.00
2023-02-18T08:05:32.488Z,2.70
2023-02-18T08:06:32.484Z,2.40
2023-02-18T08:07:32.473Z,2.30
2023-02-18T08:08:33.678Z,1.90
2023-02-18T08:09:32.440Z,1.80
2023-02-18T08:10:32.437Z,2.10
2023-02-18T08:11:32.421Z,2.00
2023-02-18T08:12:32.422Z,1.90
2023-02-18T08:13:32.401Z,3.40
2023-02-18T08:14:32.393Z,2.00
2023-02-18T08:15:32.384Z,1.70
2023-02-18T08:16:32.405Z,1.60
2023-02-18T08:17:32.383Z,3.60
2023-02-18T08:18:32.355Z,1.50
2023-02-18T08:19:32.341Z,2.30
2023-02-18T08:20:32.332Z,2.50
2023-02-18T08:21:32.460Z,1.80
2023-02-18T08:22:32.316Z,1.70
2023-02-18T08:23:32.294Z,1.90
2023-02-18T08:24:32.286Z,1.60
2023-02-18T08:25:32.273Z,1.70
2023-02-18T08:26:32.276Z,1.70
2023-02-18T08:27:32.258Z,1.50
2023-02-18T08:28:32.241Z,1.80
2023-02-18T08:29:32.234Z,1.80
2023-02-18T08:30:32.318Z,1.90
2023-02-18T08:31:32.261Z,2.30
2023-02-18T08:32:32.214Z,1.80
2023-02-18T08:33:32.194Z,2.00
2023-02-18T08:34:32.179Z,2.20
2023-02-18T08:35:32.160Z,2.70
2023-02-18T08:36:32.156Z,2.80
2023-02-18T08:37:52.497Z,3.20
2023-02-18T08:38:32.136Z,2.40
2023-02-18T08:39:32.125Z,1.90
2023-02-18T08:40:32.109Z,2.60
2023-02-18T08:41:32.096Z,2.70
2023-02-18T08:42:32.105Z,2.70
2023-02-18T08:43:32.100Z,2.60
2023-02-18T08:44:32.066Z,1.90
2023-02-18T08:45:32.813Z,2.50
2023-02-18T08:46:33.859Z,1.80
2023-02-18T08:48:17.599Z,2.20
2023-02-18T08:48:32.031Z,2.00
2023-02-18T08:49:32.020Z,2.70
2023-02-18T08:50:32.004Z,1.80
2023-02-18T08:51:32.004Z,2.10
2023-02-18T08:52:31.992Z,2.00
2023-02-18T08:53:31.962Z,2.90
2023-02-18T08:54:31.961Z,2.00
2023-02-18T08:55:31.942Z,3.30
2023-02-18T08:56:31.935Z,1.90
2023-02-18T08:57:31.925Z,4.10
2023-02-18T08:58:31.931Z,2.70
2023-02-18T08:59:31.897Z,4.30
2023-02-18T09:00:31.894Z,3.10
2023-02-18T09:01:32.056Z,2.50
2023-02-18T09:02:31.868Z,2.60
2023-02-18T09:03:31.864Z,2.70
2023-02-18T09:04:31.931Z,2.20
2023-02-18T09:05:31.828Z,2.80
2023-02-18T09:06:31.828Z,1.70
2023-02-18T09:07:31.810Z,2.50
2023-02-18T09:08:31.813Z,4.90
2023-02-18T09:09:31.789Z,1.90
2023-02-18T09:10:31.779Z,2.90
2023-02-18T09:11:31.780Z,2.10
2023-02-18T09:12:31.761Z,1.90
2023-02-18T09:13:31.754Z,2.40
2023-02-18T09:14:31.737Z,2.30
2023-02-18T09:15:31.788Z,2.50
2023-02-18T09:16:31.715Z,3.00
2023-02-18T09:17:31.706Z,2.20
2023-02-18T09:18:31.719Z,3.60
2023-02-18T09:19:31.677Z,2.90
2023-02-18T09:20:31.671Z,1.80
2023-02-18T09:21:31.756Z,2.30
2023-02-18T09:22:31.647Z,2.20
2023-02-18T09:23:31.643Z,1.90
2023-02-18T09:24:31.623Z,1.90
2023-02-18T09:25:31.611Z,2.20
2023-02-18T09:26:31.601Z,2.20
2023-02-18T09:27:31.585Z,1.70
2023-02-18T09:28:31.592Z,1.90
2023-02-18T09:29:31.568Z,2.20
2023-02-18T09:30:31.634Z,1.90
2023-02-18T09:31:31.602Z,2.00
2023-02-18T09:32:35.622Z,2.10
2023-02-18T09:33:31.528Z,2.20
2023-02-18T09:34:31.511Z,2.10
2023-02-18T09:35:31.502Z,2.70
2023-02-18T09:36:31.498Z,2.10
2023-02-18T09:37:31.475Z,2.80
2023-02-18T09:38:31.482Z,1.70
2023-02-18T09:39:31.453Z,3.00
2023-02-18T09:40:31.446Z,2.60
2023-02-18T09:41:31.438Z,2.50
2023-02-18T09:42:31.446Z,2.20
2023-02-18T09:43:31.423Z,3.30
2023-02-18T09:44:31.399Z,2.80
2023-02-18T09:45:31.385Z,1.90
2023-02-18T09:46:31.418Z,2.30
2023-02-18T09:47:31.364Z,3.00
2023-02-18T09:48:31.369Z,2.10
2023-02-18T09:49:31.341Z,2.90
2023-02-18T09:50:31.337Z,2.40
2023-02-18T09:51:31.322Z,2.40
2023-02-18T09:52:31.313Z,2.10
2023-02-18T09:53:31.332Z,3.70
2023-02-18T09:54:31.291Z,1.80
2023-02-18T09:55:31.281Z,2.50
2023-02-18T09:56:31.269Z,3.10
2023-02-18T09:57:31.254Z,3.10
2023-02-18T09:58:31.257Z,2.50
2023-02-18T09:59:31.231Z,4.20
2023-02-18T10:00:31.229Z,4.70
2023-02-18T10:01:31.250Z,3.50
2023-02-18T10:02:31.203Z,4.30
2023-02-18T10:03:31.196Z,3.70
2023-02-18T10:04:31.216Z,4.50
2023-02-18T10:05:31.176Z,4.30
2023-02-18T10:06:31.160Z,3.70
2023-02-18T10:07:31.159Z,4.40
2023-02-18T10:08:31.161Z,4.90
2023-02-18T10:09:31.123Z,5.00
2023-02-18T10:10:31.117Z,3.70
2023-02-18T10:11:31.100Z,3.30
2023-02-18T10:12:31.098Z,6.70
2023-02-18T10:13:31.092Z,4.40
2023-02-18T10:14:31.095Z,3.90
2023-02-18T10:15:31.057Z,5.30
2023-02-18T10:16:31.083Z,4.70
2023-02-18T10:17:31.039Z,3.80
2023-02-18T10:19:31.015Z,4.40
2023-02-18T10:20:31.020Z,5.70
2023-02-18T10:21:30.995Z,4.70
2023-02-18T10:22:30.993Z,3.80
2023-02-18T10:23:30.982Z,5.30
2023-02-18T10:24:30.976Z,3.70
2023-02-18T10:25:30.947Z,5.70
2023-02-18T10:26:30.947Z,3.80
2023-02-18T10:27:30.934Z,7.10
2023-02-18T10:28:30.932Z,5.70
2023-02-18T10:29:30.916Z,7.60
2023-02-18T10:30:30.961Z,5.60
2023-02-18T10:31:31.056Z,8.90
2023-02-18T10:32:38.008Z,7.30
2023-02-18T10:38:02.206Z,7.30
2023-02-18T10:39:03.230Z,8.90
2023-02-18T10:40:03.187Z,7.50
2023-02-18T10:41:03.183Z,6.10
2023-02-18T10:42:03.174Z,7.90
2023-02-18T10:43:03.158Z,9.40
2023-02-18T10:44:03.150Z,7.30
2023-02-18T10:45:03.146Z,8.10
2023-02-18T10:46:03.125Z,7.80
2023-02-18T10:47:03.113Z,8.10
2023-02-18T10:48:03.100Z,9.50
2023-02-18T10:49:03.106Z,11.00
2023-02-18T10:50:03.085Z,8.50
2023-02-18T10:51:03.087Z,6.80
2023-02-18T10:52:03.051Z,7.80
2023-02-18T10:53:03.048Z,12.00
2023-02-18T10:54:03.039Z,10.60
2023-02-18T10:55:03.021Z,9.40
2023-02-18T10:56:03.070Z,8.40
2023-02-18T10:57:03.000Z,7.90
2023-02-18T10:58:02.985Z,9.30
2023-02-18T10:59:02.989Z,9.50
2023-02-18T11:00:02.967Z,9.60
2023-02-18T11:01:02.962Z,8.60
2023-02-18T11:02:02.953Z,6.60
2023-02-18T11:03:02.934Z,6.50
2023-02-18T11:04:02.932Z,7.20
2023-02-18T11:05:03.028Z,7.50
2023-02-18T11:06:02.898Z,8.50
2023-02-18T11:07:02.902Z,8.30
2023-02-18T11:08:02.870Z,7.90
2023-02-18T11:09:02.887Z,7.20
2023-02-18T11:10:02.850Z,7.90
2023-02-18T11:11:02.850Z,9.50
2023-02-18T11:12:08.213Z,7.00
2023-02-18T11:13:02.829Z,9.00
2023-02-18T11:14:02.818Z,8.10
2023-02-18T11:15:02.800Z,5.50
2023-02-18T11:16:02.808Z,7.30
2023-02-18T11:17:02.785Z,5.80
2023-02-18T11:18:02.763Z,9.10
2023-02-18T11:19:02.766Z,9.50
2023-02-18T11:20:02.754Z,6.40
2023-02-18T11:21:02.733Z,8.20
2023-02-18T11:22:02.719Z,9.80
2023-02-18T11:23:02.739Z,6.30
2023-02-18T11:24:02.703Z,5.90
2023-02-18T11:25:02.689Z,7.10
2023-02-18T11:26:02.673Z,6.00
2023-02-18T11:27:02.667Z,7.50
2023-02-18T11:28:02.661Z,7.10
2023-02-18T11:29:02.654Z,7.70
2023-02-18T11:30:02.703Z,6.20
2023-02-18T11:31:02.698Z,8.10
2023-02-18T11:32:02.745Z,7.70
2023-02-18T11:33:02.599Z,4.40
2023-02-18T11:34:02.592Z,5.90
2023-02-18T11:35:02.577Z,5.30
2023-02-18T11:36:02.563Z,4.60
2023-02-18T11:37:02.555Z,4.70
2023-02-18T11:38:02.549Z,5.20
2023-02-18T11:39:02.540Z,9.30
2023-02-18T11:40:02.515Z,8.70
2023-02-18T11:41:02.515Z,4.90
2023-02-18T11:42:02.495Z,5.90
2023-02-18T11:43:02.484Z,6.60
2023-02-18T11:44:02.484Z,8.30
2023-02-18T11:45:05.168Z,5.90
2023-02-18T11:46:02.456Z,6.40
2023-02-18T11:47:02.459Z,5.70
2023-02-18T11:48:02.434Z,6.20
2023-02-18T11:49:02.430Z,7.30
2023-02-18T11:50:02.432Z,6.70
2023-02-18T11:51:02.404Z,6.50
2023-02-18T11:52:02.387Z,5.70
2023-02-18T11:53:02.385Z,6.20
2023-02-18T11:54:02.386Z,5.40
2023-02-18T11:55:02.362Z,7.10
2023-02-18T11:56:02.341Z,5.70
2023-02-18T11:57:02.379Z,5.60
2023-02-18T11:58:02.324Z,5.50
2023-02-18T12:02:37.849Z,6.90
2023-02-18T12:03:38.817Z,7.40
2023-02-18T12:04:38.785Z,6.00
2023-02-18T12:05:38.781Z,6.80
2023-02-18T12:06:38.750Z,4.90
2023-02-18T12:07:38.743Z,6.40
2023-02-18T12:08:38.731Z,8.90
2023-02-18T12:09:38.741Z,6.70
2023-02-18T12:10:38.710Z,6.70
2023-02-18T12:11:38.705Z,7.30
2023-02-18T12:12:38.687Z,7.40
2023-02-18T12:13:38.684Z,6.80
2023-02-18T12:14:38.673Z,6.60
2023-02-18T12:15:38.664Z,5.60
2023-02-18T12:16:38.708Z,6.70
2023-02-18T12:17:38.634Z,5.40
2023-02-18T12:18:40.461Z,7.00
2023-02-18T12:19:38.621Z,6.40
2023-02-18T12:20:38.601Z,6.50
2023-02-18T12:21:38.591Z,6.20
2023-02-18T12:22:38.577Z,6.90
2023-02-18T12:23:38.573Z,7.20
2023-02-18T12:24:38.563Z,7.70
2023-02-18T12:25:38.552Z,7.80
2023-02-18T12:26:38.532Z,8.10
2023-02-18T12:27:38.524Z,7.30
2023-02-18T12:28:38.516Z,9.60
2023-02-18T12:29:38.515Z,6.70
2023-02-18T12:30:38.489Z,8.00
2023-02-18T12:31:38.547Z,6.00
2023-02-18T12:32:38.463Z,7.20
2023-02-18T12:33:38.472Z,7.40
2023-02-18T12:34:38.457Z,6.70
2023-02-18T12:35:38.441Z,6.70
2023-02-18T12:36:38.433Z,7.80
2023-02-18T12:37:38.414Z,6.40
2023-02-18T12:38:38.399Z,6.30
2023-02-18T12:39:38.402Z,6.70
2023-02-18T12:40:38.392Z,7.20
2023-02-18T12:41:38.374Z,6.00
2023-02-18T12:42:38.354Z,6.40
2023-02-18T12:43:38.371Z,8.20
2023-02-18T12:44:38.352Z,7.60
2023-02-18T12:45:38.351Z,6.70
2023-02-18T12:46:38.310Z,6.30
2023-02-18T12:47:38.301Z,7.60
2023-02-18T12:48:38.290Z,7.70
2023-02-18T12:49:38.280Z,7.60
2023-02-18T12:50:38.271Z,8.10
2023-02-18T12:51:38.261Z,7.10
2023-02-18T12:52:38.267Z,8.50
2023-02-18T12:53:38.264Z,7.50
2023-02-18T12:54:38.226Z,9.60
2023-02-18T12:55:38.230Z,7.50
2023-02-18T12:56:38.199Z,8.80
2023-02-18T12:57:38.196Z,8.10
2023-02-18T12:58:38.180Z,9.00
2023-02-18T12:59:38.175Z,6.40
2023-02-18T13:00:38.172Z,8.80
2023-02-18T13:01:38.148Z,8.60
2023-02-18T13:02:38.134Z,8.60
2023-02-18T13:03:38.133Z,8.80
2023-02-18T13:04:38.116Z,9.90
2023-02-18T13:05:38.142Z,8.90
2023-02-18T13:06:38.097Z,9.40
2023-02-18T13:07:38.087Z,10.50
2023-02-18T13:08:38.068Z,9.30
2023-02-18T13:09:38.060Z,11.90
2023-02-18T13:10:38.091Z,11.20
2023-02-18T13:11:38.037Z,11.70
2023-02-18T13:12:38.035Z,10.70
2023-02-18T13:13:38.023Z,11.10